createdAt,value
2022-09-10T00:00:18.075Z,84.93
2022-09-10T00:01:34.742Z,84.69
2022-09-10T00:02:51.122Z,84.96
2022-09-10T00:04:07.504Z,84.79
2022-09-10T00:05:23.861Z,85.05
2022-09-10T00:06:40.239Z,85.49
2022-09-10T00:07:56.903Z,85.29
2022-09-10T00:09:13.381Z,85.25
2022-09-10T00:10:29.743Z,85.22
2022-09-10T00:11:46.111Z,85.17
2022-09-10T00:13:02.527Z,85.31
2022-09-10T00:14:19.189Z,85.45
2022-09-10T00:15:35.532Z,85.62
2022-09-10T00:16:51.906Z,85.60
2022-09-10T00:18:08.474Z,85.55
2022-09-10T00:19:24.873Z,85.37
2022-09-10T00:20:41.524Z,84.94
2022-09-10T00:21:57.885Z,84.74
2022-09-10T00:23:14.299Z,85.24
2022-09-10T00:24:30.668Z,85.25
2022-09-10T00:25:47.014Z,85.51
2022-09-10T00:27:03.690Z,85.24
2022-09-10T00:28:20.086Z,85.27
2022-09-10T00:29:36.466Z,85.02
2022-09-10T00:30:52.827Z,85.06
2022-09-10T00:32:09.295Z,85.32
2022-09-10T00:33:26.888Z,84.98
2022-09-10T00:34:43.292Z,84.96
2022-09-10T00:35:59.660Z,85.39
2022-09-10T00:37:16.029Z,85.43
2022-09-10T00:38:32.421Z,85.03
2022-09-10T00:39:49.166Z,84.96
2022-09-10T00:41:05.501Z,84.91
2022-09-10T00:42:21.992Z,85.09
2022-09-10T00:43:38.341Z,84.87
2022-09-10T00:44:54.750Z,84.62
2022-09-10T00:46:11.401Z,85.12
2022-09-10T00:47:27.773Z,85.21
2022-09-10T00:48:44.122Z,85.25
2022-09-10T00:50:00.532Z,85.15
2022-09-10T00:51:16.964Z,85.20
2022-09-10T00:52:37.576Z,85.06
2022-09-10T00:53:54.824Z,85.50
2022-09-10T00:55:12.170Z,85.28
2022-09-10T00:56:28.534Z,85.42
2022-09-10T00:57:44.908Z,85.20
2022-09-10T00:59:01.555Z,85.02
2022-09-10T01:00:17.946Z,85.50
2022-09-10T01:01:34.398Z,85.31
2022-09-10T01:02:50.817Z,85.81
2022-09-10T01:04:07.176Z,85.92
2022-09-10T01:05:23.843Z,85.43
2022-09-10T01:06:40.221Z,85.76
2022-09-10T01:07:56.627Z,85.88
2022-09-10T01:09:13.950Z,85.66
2022-09-10T01:10:30.330Z,85.85
2022-09-10T01:11:46.961Z,85.95
2022-09-10T01:13:03.370Z,86.12
2022-09-10T01:14:19.742Z,86.58
2022-09-10T01:15:36.100Z,85.95
2022-09-10T01:16:52.464Z,86.03
2022-09-10T01:18:09.147Z,85.71
2022-09-10T01:19:25.479Z,85.39
2022-09-10T01:20:41.865Z,85.28
2022-09-10T01:21:58.224Z,85.28
2022-09-10T01:23:17.780Z,85.48
2022-09-10T01:24:34.706Z,85.05
2022-09-10T01:25:51.064Z,85.01
2022-09-10T01:27:07.511Z,85.12
2022-09-10T01:28:24.846Z,85.25
2022-09-10T01:29:41.194Z,84.88
2022-09-10T01:30:57.855Z,85.34
2022-09-10T01:32:14.261Z,85.19
2022-09-10T01:33:30.628Z,85.03
2022-09-10T01:34:47.005Z,85.26
2022-09-10T01:36:03.379Z,84.87
2022-09-10T01:37:20.008Z,84.50
2022-09-10T01:38:36.487Z,84.40
2022-09-10T01:39:52.908Z,84.50
2022-09-10T01:41:09.259Z,84.30
2022-09-10T01:42:25.619Z,84.50
2022-09-10T01:43:42.259Z,84.50
2022-09-10T01:44:58.669Z,84.87
2022-09-10T01:46:15.039Z,84.31
2022-09-10T01:47:31.399Z,84.46
2022-09-10T01:48:47.766Z,84.40
2022-09-10T01:50:04.441Z,84.49
2022-09-10T01:51:20.813Z,84.77
2022-09-10T01:52:37.177Z,84.99
2022-09-10T01:53:53.541Z,84.74
2022-09-10T01:55:09.938Z,84.63
2022-09-10T01:56:26.656Z,84.68
2022-09-10T01:57:43.021Z,84.74
2022-09-10T01:58:59.393Z,84.81
2022-09-10T02:00:15.785Z,84.65
2022-09-10T02:01:32.170Z,84.75
2022-09-10T02:02:48.814Z,84.58
2022-09-10T02:04:05.175Z,84.61
2022-09-10T02:05:21.598Z,84.29
2022-09-10T02:06:37.950Z,84.28
2022-09-10T02:07:55.247Z,84.21
2022-09-10T02:09:11.925Z,84.05
2022-09-10T02:10:28.287Z,84.12
2022-09-10T02:11:44.683Z,84.55
2022-09-10T02:13:01.030Z,84.41
2022-09-10T02:14:18.363Z,84.30
2022-09-10T02:15:35.011Z,84.36
2022-09-10T02:16:51.370Z,83.88
2022-09-10T02:18:07.739Z,84.22
2022-09-10T02:19:24.118Z,84.07
2022-09-10T02:20:40.496Z,84.49
2022-09-10T02:21:57.151Z,84.45
2022-09-10T02:23:14.979Z,84.37
2022-09-10T02:24:31.351Z,84.51
2022-09-10T02:25:47.711Z,84.80
2022-09-10T02:27:04.120Z,84.80
2022-09-10T02:28:20.839Z,84.70
2022-09-10T02:29:37.153Z,84.67
2022-09-10T02:30:53.555Z,85.03
2022-09-10T02:32:09.920Z,85.02
2022-09-10T02:33:26.267Z,84.88
2022-09-10T02:34:42.937Z,84.94
2022-09-10T02:35:59.373Z,85.14
2022-09-10T02:37:15.745Z,85.09
2022-09-10T02:38:32.160Z,85.06
2022-09-10T02:39:48.546Z,85.10
2022-09-10T02:41:05.196Z,84.87
2022-09-10T02:42:21.589Z,84.73
2022-09-10T02:43:37.943Z,84.59
2022-09-10T02:44:54.360Z,84.86
2022-09-10T02:46:10.719Z,84.86
2022-09-10T02:47:28.321Z,84.27
2022-09-10T02:48:44.668Z,84.61
2022-09-10T02:50:01.072Z,84.31
2022-09-10T02:51:17.418Z,83.89
2022-09-10T02:52:33.801Z,84.27
2022-09-10T02:53:50.445Z,84.43
2022-09-10T02:55:06.891Z,84.20
2022-09-10T02:56:23.261Z,84.54
2022-09-10T02:57:39.673Z,84.15
2022-09-10T02:58:56.032Z,84.33
2022-09-10T03:00:12.668Z,84.27
2022-09-10T03:01:29.043Z,84.50
2022-09-10T03:02:45.449Z,84.26
2022-09-10T03:04:01.802Z,84.34
2022-09-10T03:05:18.238Z,84.22
2022-09-10T03:06:34.986Z,84.17
2022-09-10T03:07:51.358Z,84.38
2022-09-10T03:09:07.715Z,84.51
2022-09-10T03:10:24.085Z,84.43
2022-09-10T03:11:40.479Z,84.78
2022-09-10T03:12:57.137Z,84.59
2022-09-10T03:14:13.517Z,84.62
2022-09-10T03:15:29.900Z,84.84
2022-09-10T03:16:46.286Z,84.86
2022-09-10T03:18:02.663Z,84.54
2022-09-10T03:19:19.297Z,84.64
2022-09-10T03:20:35.678Z,84.84
2022-09-10T03:21:52.077Z,84.89
2022-09-10T03:23:08.471Z,84.95
2022-09-10T03:24:24.799Z,84.92
2022-09-10T03:25:41.450Z,84.87
2022-09-10T03:26:57.838Z,84.89
2022-09-10T03:28:14.217Z,84.94
2022-09-10T03:29:30.570Z,84.78
2022-09-10T03:30:46.960Z,84.77
2022-09-10T03:32:03.640Z,84.35
2022-09-10T03:33:20.002Z,84.75
2022-09-10T03:34:36.402Z,84.82
2022-09-10T03:35:52.864Z,84.88
2022-09-10T03:37:09.216Z,84.65
2022-09-10T03:38:25.852Z,85.26
2022-09-10T03:39:42.244Z,84.77
2022-09-10T03:40:58.639Z,85.09
2022-09-10T03:42:15.000Z,85.21
2022-09-10T03:43:31.374Z,85.16
2022-09-10T03:44:47.997Z,85.46
2022-09-10T03:46:05.425Z,85.09
2022-09-10T03:47:21.785Z,85.07
2022-09-10T03:48:38.294Z,85.14
2022-09-10T03:49:54.668Z,85.18
2022-09-10T03:51:11.369Z,84.74
2022-09-10T03:52:27.729Z,84.86
2022-09-10T03:53:44.100Z,84.85
2022-09-10T03:55:00.450Z,84.93
2022-09-10T03:56:16.881Z,84.82
2022-09-10T03:57:33.542Z,84.78
2022-09-10T03:58:49.907Z,84.56
2022-09-10T04:00:06.261Z,84.62
2022-09-10T04:01:22.728Z,84.38
2022-09-10T04:02:39.053Z,84.68
2022-09-10T04:03:55.723Z,84.50
2022-09-10T04:05:12.092Z,84.21
2022-09-10T04:06:28.492Z,84.25
2022-09-10T04:07:44.873Z,84.34
2022-09-10T04:09:01.214Z,84.01
2022-09-10T04:10:17.875Z,84.29
2022-09-10T04:11:34.253Z,84.33
2022-09-10T04:12:50.622Z,84.21
2022-09-10T04:14:06.997Z,84.00
2022-09-10T04:15:23.365Z,84.04
2022-09-10T04:16:40.039Z,84.10
2022-09-10T04:17:56.407Z,84.40
2022-09-10T04:19:12.768Z,84.01
2022-09-10T04:20:29.184Z,83.81
2022-09-10T04:21:45.555Z,84.27
2022-09-10T04:23:02.224Z,83.92
2022-09-10T04:24:18.573Z,83.99
2022-09-10T04:25:34.979Z,83.97
2022-09-10T04:26:51.339Z,84.13
2022-09-10T04:28:07.731Z,84.48
2022-09-10T04:29:24.414Z,84.33
2022-09-10T04:30:40.779Z,84.71
2022-09-10T04:31:57.228Z,84.39
2022-09-10T04:33:13.571Z,84.27
2022-09-10T04:34:29.933Z,84.37
2022-09-10T04:35:46.602Z,84.49
2022-09-10T04:37:02.953Z,84.27
2022-09-10T04:38:19.333Z,84.53
2022-09-10T04:39:35.726Z,84.32
2022-09-10T04:40:52.125Z,84.30
2022-09-10T04:42:08.724Z,84.15
2022-09-10T04:43:25.104Z,84.12
2022-09-10T04:44:41.464Z,84.02
2022-09-10T04:45:58.034Z,84.05
2022-09-10T04:47:14.386Z,84.42
2022-09-10T04:48:31.071Z,84.17
2022-09-10T04:49:47.419Z,84.02
2022-09-10T04:51:16.112Z,84.24
2022-09-10T04:52:25.119Z,84.11
2022-09-10T04:53:41.498Z,83.67
2022-09-10T04:54:58.132Z,83.90
2022-09-10T04:56:14.553Z,83.56
2022-09-10T04:57:30.947Z,83.87
2022-09-10T04:58:47.299Z,83.64
2022-09-10T05:00:03.660Z,83.55
2022-09-10T05:01:20.377Z,83.33
2022-09-10T05:02:36.719Z,83.62
2022-09-10T05:03:53.102Z,83.25
2022-09-10T05:05:09.468Z,83.39
2022-09-10T05:06:25.942Z,83.62
2022-09-10T05:07:42.592Z,83.31
2022-09-10T05:08:58.989Z,83.49
2022-09-10T05:10:16.293Z,83.42
2022-09-10T05:11:32.716Z,83.17
2022-09-10T05:12:49.072Z,83.22
2022-09-10T05:14:05.725Z,83.29
2022-09-10T05:15:22.140Z,82.80
2022-09-10T05:16:38.588Z,82.94
2022-09-10T05:17:54.966Z,82.86
2022-09-10T05:19:11.355Z,82.81
2022-09-10T05:20:27.774Z,82.83
2022-09-10T05:21:44.165Z,82.72
2022-09-10T05:23:00.572Z,82.51
2022-09-10T05:24:16.928Z,82.18
2022-09-10T05:25:33.617Z,83.19
2022-09-10T05:26:50.029Z,82.81
2022-09-10T05:28:06.418Z,82.59
2022-09-10T05:29:22.780Z,82.68
2022-09-10T05:30:39.217Z,83.05
2022-09-10T05:31:55.906Z,82.34
2022-09-10T05:33:12.258Z,83.11
2022-09-10T05:34:28.631Z,82.48
2022-09-10T05:35:45.047Z,82.09
2022-09-10T05:37:01.421Z,82.17
2022-09-10T05:38:18.081Z,82.89
2022-09-10T05:39:34.542Z,82.48
2022-09-10T05:40:50.932Z,82.74
2022-09-10T05:42:07.343Z,82.25
2022-09-10T05:43:23.711Z,82.25
2022-09-10T05:44:40.382Z,82.51
2022-09-10T05:45:56.856Z,82.35
2022-09-10T05:47:13.254Z,82.46
2022-09-10T05:48:29.577Z,82.04
2022-09-10T05:49:45.965Z,82.41
2022-09-10T05:51:02.638Z,82.28
2022-09-10T05:52:19.024Z,82.11
2022-09-10T05:53:35.386Z,82.20
2022-09-10T05:54:51.768Z,81.90
2022-09-10T05:56:08.230Z,81.88
2022-09-10T05:57:24.875Z,81.66
2022-09-10T05:58:41.247Z,81.54
2022-09-10T05:59:57.635Z,81.43
2022-09-10T06:01:14.046Z,81.50
2022-09-10T06:02:30.506Z,81.21
2022-09-10T06:03:47.170Z,80.93
2022-09-10T06:05:03.576Z,80.77
2022-09-10T06:06:20.055Z,80.96
2022-09-10T06:07:36.423Z,80.94
2022-09-10T06:08:52.817Z,80.68
2022-09-10T06:10:09.463Z,80.81
2022-09-10T06:11:25.875Z,80.46
2022-09-10T06:12:42.252Z,80.46
2022-09-10T06:13:58.612Z,80.12
2022-09-10T06:15:15.024Z,80.30
2022-09-10T06:16:31.708Z,80.55
2022-09-10T06:17:48.082Z,80.23
2022-09-10T06:19:04.445Z,80.35
2022-09-10T06:20:20.835Z,80.45
2022-09-10T06:21:37.196Z,80.10
2022-09-10T06:22:54.867Z,80.44
2022-09-10T06:24:11.235Z,80.46
2022-09-10T06:25:27.647Z,79.90
2022-09-10T06:26:44.029Z,79.94
2022-09-10T06:28:00.416Z,79.70
2022-09-10T06:29:17.052Z,79.41
2022-09-10T06:30:33.493Z,79.60
2022-09-10T06:31:49.857Z,79.37
2022-09-10T06:33:06.243Z,78.90
2022-09-10T06:34:22.642Z,79.07
2022-09-10T06:35:39.289Z,79.12
2022-09-10T06:36:55.718Z,79.32
2022-09-10T06:38:12.091Z,79.46
2022-09-10T06:39:28.526Z,78.98
2022-09-10T06:40:44.901Z,79.09
2022-09-10T06:42:01.550Z,78.74
2022-09-10T06:43:19.432Z,78.84
2022-09-10T06:44:35.838Z,78.83
2022-09-10T06:45:52.273Z,78.25
2022-09-10T06:47:46.284Z,78.11
2022-09-10T06:48:38.554Z,78.35
2022-09-10T06:49:51.046Z,77.76
2022-09-10T06:51:07.434Z,77.91
2022-09-10T06:52:26.525Z,77.63
2022-09-10T06:53:42.895Z,78.02
2022-09-10T06:54:59.580Z,77.94
2022-09-10T06:56:15.949Z,77.78
2022-09-10T06:57:32.342Z,77.89
2022-09-10T06:58:48.735Z,78.01
2022-09-10T07:00:05.137Z,77.76
2022-09-10T07:01:21.889Z,77.92
2022-09-10T07:02:38.238Z,77.95
2022-09-10T07:03:54.634Z,78.07
2022-09-10T07:05:11.086Z,77.60
2022-09-10T07:06:27.518Z,77.71
2022-09-10T07:07:44.160Z,77.59
2022-09-10T07:09:00.572Z,77.79
2022-09-10T07:10:16.980Z,77.60
2022-09-10T07:11:33.874Z,77.70
2022-09-10T07:12:51.445Z,77.81
2022-09-10T07:14:08.113Z,77.33
2022-09-10T07:15:24.472Z,77.55
2022-09-10T07:16:40.869Z,77.53
2022-09-10T07:17:57.273Z,78.00
2022-09-10T07:19:13.662Z,77.60
2022-09-10T07:20:30.307Z,77.64
2022-09-10T07:21:46.693Z,77.56
2022-09-10T07:23:03.103Z,77.52
2022-09-10T07:24:19.726Z,77.40
2022-09-10T07:25:36.096Z,77.76
2022-09-10T07:26:52.814Z,77.14
2022-09-10T07:28:09.205Z,77.35
2022-09-10T07:29:25.585Z,77.41
2022-09-10T07:30:42.009Z,77.44
2022-09-10T07:31:58.357Z,77.08
2022-09-10T07:33:15.126Z,76.81
2022-09-10T07:34:31.519Z,76.85
2022-09-10T07:35:47.957Z,76.98
2022-09-10T07:37:04.339Z,77.30
2022-09-10T07:38:20.821Z,76.92
2022-09-10T07:39:37.496Z,76.99
2022-09-10T07:40:53.832Z,76.86
2022-09-10T07:42:10.229Z,76.95
2022-09-10T07:43:26.630Z,76.73
2022-09-10T07:44:43.000Z,76.76
2022-09-10T07:46:04.292Z,76.75
2022-09-10T07:47:20.844Z,76.22
2022-09-10T07:48:37.212Z,75.83
2022-09-10T07:49:53.594Z,75.83
2022-09-10T07:51:10.005Z,75.81
2022-09-10T07:52:26.653Z,75.92
2022-09-10T07:53:50.301Z,75.78
2022-09-10T07:55:04.272Z,75.85
2022-09-10T07:56:20.667Z,75.70
2022-09-10T07:57:37.064Z,75.48
2022-09-10T07:58:53.452Z,75.71
2022-09-10T08:00:10.185Z,75.31
2022-09-10T08:01:26.599Z,75.75
2022-09-10T08:02:43.311Z,76.38
2022-09-10T08:03:59.700Z,75.95
2022-09-10T08:05:16.538Z,75.81
2022-09-10T08:06:32.930Z,75.96
2022-09-10T08:07:49.300Z,75.45
2022-09-10T08:09:05.677Z,75.49
2022-09-10T08:10:22.100Z,75.49
2022-09-10T08:11:38.749Z,75.25
2022-09-10T08:12:55.146Z,75.29
2022-09-10T08:14:11.531Z,75.23
2022-09-10T08:15:28.039Z,75.31
2022-09-10T08:16:44.700Z,75.64
2022-09-10T08:18:01.372Z,75.49
2022-09-10T08:19:17.758Z,75.20
2022-09-10T08:20:34.171Z,75.15
2022-09-10T08:21:50.562Z,74.95
2022-09-10T08:23:06.962Z,74.99
2022-09-10T08:24:23.348Z,74.62
2022-09-10T08:25:39.734Z,74.29
2022-09-10T08:26:56.140Z,74.08
2022-09-10T08:28:12.524Z,73.88
2022-09-10T08:29:29.175Z,73.75
2022-09-10T08:30:45.654Z,73.89
2022-09-10T08:32:02.028Z,73.92
2022-09-10T08:33:18.480Z,74.68
2022-09-10T08:34:34.875Z,74.49
2022-09-10T08:35:51.511Z,74.15
2022-09-10T08:37:07.900Z,74.61
2022-09-10T08:38:24.289Z,74.31
2022-09-10T08:39:40.721Z,74.39
2022-09-10T08:40:57.077Z,74.91
2022-09-10T08:42:13.748Z,74.20
2022-09-10T08:43:30.178Z,74.16
2022-09-10T08:44:48.083Z,74.06
2022-09-10T08:46:04.574Z,74.45
2022-09-10T08:47:20.930Z,74.54
2022-09-10T08:48:39.702Z,74.84
2022-09-10T08:49:56.096Z,74.93
2022-09-10T08:51:12.473Z,74.68
2022-09-10T08:52:28.907Z,74.41
2022-09-10T08:53:45.271Z,74.60
2022-09-10T08:55:01.937Z,74.33
2022-09-10T08:56:18.328Z,74.94
2022-09-10T08:57:34.910Z,74.77
2022-09-10T08:58:51.266Z,74.64
2022-09-10T09:00:07.635Z,74.29
2022-09-10T09:01:24.368Z,74.17
2022-09-10T09:02:49.993Z,73.87
2022-09-10T09:04:06.314Z,73.74
2022-09-10T09:05:22.840Z,73.66
2022-09-10T09:06:39.235Z,74.05
2022-09-10T09:07:55.907Z,73.69
2022-09-10T09:09:15.458Z,74.16
2022-09-10T09:10:32.252Z,74.03
2022-09-10T09:11:48.656Z,73.93
2022-09-10T09:13:05.040Z,74.00
2022-09-10T09:14:21.695Z,74.07
2022-09-10T09:15:38.148Z,73.76
2022-09-10T09:16:54.597Z,73.77
2022-09-10T09:18:10.967Z,73.66
2022-09-10T09:19:27.335Z,73.64
2022-09-10T09:20:44.015Z,73.66
2022-09-10T09:22:00.408Z,73.73
2022-09-10T09:23:16.793Z,73.84
2022-09-10T09:24:34.634Z,74.05
2022-09-10T09:25:51.016Z,73.85
2022-09-10T09:27:07.689Z,74.24
2022-09-10T09:28:24.108Z,74.33
2022-09-10T09:29:40.453Z,73.98
2022-09-10T09:30:56.949Z,74.28
2022-09-10T09:32:13.358Z,74.49
2022-09-10T09:33:30.011Z,74.70
2022-09-10T09:34:46.407Z,74.28
2022-09-10T09:36:02.846Z,74.14
2022-09-10T09:37:19.239Z,74.34
2022-09-10T09:38:35.608Z,74.16
2022-09-10T09:39:52.321Z,74.02
2022-09-10T09:41:08.714Z,74.52
2022-09-10T09:42:25.069Z,74.03
2022-09-10T09:43:41.471Z,74.03
2022-09-10T09:44:57.910Z,74.14
2022-09-10T09:46:14.620Z,74.28
2022-09-10T09:47:30.982Z,73.94
2022-09-10T09:48:47.372Z,73.99
2022-09-10T09:50:03.847Z,74.32
2022-09-10T09:51:21.157Z,74.06
2022-09-10T09:52:37.852Z,74.05
2022-09-10T09:54:18.461Z,74.95
2022-09-10T09:55:18.405Z,74.35
2022-09-10T09:56:34.807Z,74.89
2022-09-10T09:57:51.217Z,74.64
2022-09-10T09:59:09.971Z,74.82
2022-09-10T10:00:29.118Z,74.67
2022-09-10T10:01:45.501Z,74.61
2022-09-10T10:03:01.880Z,74.50
2022-09-10T10:04:18.279Z,74.66
2022-09-10T10:05:34.983Z,75.02
2022-09-10T10:06:51.347Z,75.16
2022-09-10T10:08:09.194Z,75.07
2022-09-10T10:09:27.072Z,75.11
2022-09-10T10:10:44.890Z,74.96
2022-09-10T10:12:01.553Z,75.26
2022-09-10T10:13:19.900Z,75.23
2022-09-10T10:14:36.290Z,75.16
2022-09-10T10:15:52.723Z,75.13
2022-09-10T10:17:10.574Z,75.27
2022-09-10T10:18:27.232Z,75.40
2022-09-10T10:19:45.053Z,75.47
2022-09-10T10:21:01.453Z,75.16
2022-09-10T10:22:17.905Z,75.39
2022-09-10T10:23:34.294Z,75.48
2022-09-10T10:24:50.973Z,75.35
2022-09-10T10:26:08.808Z,75.63
2022-09-10T10:27:25.209Z,75.23
2022-09-10T10:28:41.587Z,75.67
2022-09-10T10:29:58.052Z,75.85
2022-09-10T10:31:14.687Z,75.98
2022-09-10T10:32:32.519Z,75.38
2022-09-10T10:33:49.049Z,75.52
2022-09-10T10:35:05.452Z,75.47
2022-09-10T10:36:21.814Z,75.64
2022-09-10T10:37:38.289Z,75.58
2022-09-10T10:38:54.673Z,76.08
2022-09-10T10:40:11.107Z,76.05
2022-09-10T10:41:27.450Z,76.11
2022-09-10T10:42:44.874Z,76.17
2022-09-10T10:44:03.104Z,76.42
2022-09-10T10:45:20.989Z,75.98
2022-09-10T10:46:37.389Z,75.80
2022-09-10T10:47:53.942Z,76.03
2022-09-10T10:49:10.316Z,76.50
2022-09-10T10:50:26.977Z,76.45
2022-09-10T10:51:43.344Z,76.69
2022-09-10T10:52:59.781Z,77.11
2022-09-10T10:54:17.095Z,77.24
2022-09-10T10:55:33.575Z,77.61
2022-09-10T10:56:51.649Z,77.54
2022-09-10T10:58:08.046Z,77.44
2022-09-10T10:59:24.417Z,77.65
2022-09-10T11:00:40.865Z,77.74
2022-09-10T11:01:57.372Z,77.53
2022-09-10T11:03:14.083Z,77.76
2022-09-10T11:04:30.514Z,77.27
2022-09-10T11:05:46.912Z,77.54
2022-09-10T11:07:03.289Z,77.48
2022-09-10T11:08:19.734Z,77.29
2022-09-10T11:09:36.405Z,77.05
2022-09-10T11:10:52.835Z,77.06
2022-09-10T11:12:09.221Z,77.05
2022-09-10T11:13:27.092Z,76.98
2022-09-10T11:14:44.912Z,77.13
2022-09-10T11:16:01.665Z,77.40
2022-09-10T11:17:18.043Z,76.85
2022-09-10T11:18:36.002Z,76.99
2022-09-10T11:20:10.846Z,76.86
2022-09-10T11:21:13.653Z,76.50
2022-09-10T11:22:30.270Z,76.71
2022-09-10T11:23:46.662Z,76.32
2022-09-10T11:25:03.067Z,76.63
2022-09-10T11:26:19.482Z,76.75
2022-09-10T11:27:35.847Z,76.95
2022-09-10T11:28:52.519Z,76.35
2022-09-10T11:30:10.381Z,76.30
2022-09-10T11:31:26.781Z,75.94
2022-09-10T11:32:43.174Z,76.17
2022-09-10T11:33:59.559Z,75.79
2022-09-10T11:35:16.227Z,76.09
2022-09-10T11:36:32.600Z,76.27
2022-09-10T11:37:49.011Z,76.20
2022-09-10T11:39:05.412Z,75.80
2022-09-10T11:40:21.761Z,76.05
2022-09-10T11:41:38.505Z,76.50
2022-09-10T11:42:54.832Z,76.14
2022-09-10T11:44:11.213Z,76.49
2022-09-10T11:45:27.594Z,76.53
2022-09-10T11:46:44.033Z,76.74
2022-09-10T11:48:01.622Z,76.55
2022-09-10T11:49:18.035Z,76.86
2022-09-10T11:50:34.983Z,76.76
2022-09-10T11:51:51.424Z,77.00
2022-09-10T11:53:07.841Z,76.67
2022-09-10T11:54:24.469Z,76.90
2022-09-10T11:55:40.846Z,76.68
2022-09-10T11:56:57.244Z,76.34
2022-09-10T11:58:13.594Z,75.75
2022-09-10T11:59:29.967Z,76.40
2022-09-10T12:00:46.630Z,76.21
2022-09-10T12:02:03.087Z,76.29
2022-09-10T12:03:19.484Z,76.41
2022-09-10T12:04:39.853Z,76.32
2022-09-10T12:05:57.097Z,76.45
2022-09-10T12:07:13.738Z,76.84
2022-09-10T12:08:30.101Z,76.83
2022-09-10T12:09:46.523Z,76.67
2022-09-10T12:11:04.412Z,76.82
2022-09-10T12:12:20.779Z,76.43
2022-09-10T12:13:37.446Z,76.46
2022-09-10T12:14:53.853Z,75.98
2022-09-10T12:16:10.288Z,76.00
2022-09-10T12:17:26.644Z,76.45
2022-09-10T12:18:43.089Z,76.04
2022-09-10T12:20:01.194Z,76.07
2022-09-10T12:21:17.597Z,75.80
2022-09-10T12:22:33.966Z,75.78
2022-09-10T12:23:50.348Z,75.54
2022-09-10T12:25:06.785Z,75.93
2022-09-10T12:26:23.443Z,75.77
2022-09-10T12:27:39.819Z,75.74
2022-09-10T12:28:56.341Z,75.87
2022-09-10T12:30:12.687Z,75.80
2022-09-10T12:31:29.124Z,75.94
2022-09-10T12:32:45.807Z,76.29
2022-09-10T12:34:02.187Z,76.28
2022-09-10T12:35:18.559Z,76.24
2022-09-10T12:36:34.990Z,76.73
2022-09-10T12:37:51.371Z,76.39
2022-09-10T12:39:08.044Z,77.42
2022-09-10T12:40:24.462Z,77.28
2022-09-10T12:41:40.844Z,77.91
2022-09-10T12:42:57.263Z,78.27
2022-09-10T12:44:13.654Z,78.08
2022-09-10T12:45:30.306Z,78.27
2022-09-10T12:46:46.674Z,77.87
2022-09-10T12:48:03.083Z,77.97
2022-09-10T12:49:19.476Z,77.73
2022-09-10T12:50:35.901Z,77.98
2022-09-10T12:51:52.512Z,77.93
2022-09-10T12:53:08.894Z,78.19
2022-09-10T12:54:25.291Z,77.75
2022-09-10T12:55:41.710Z,77.84
2022-09-10T12:56:58.089Z,77.75
2022-09-10T12:58:14.780Z,77.78
2022-09-10T12:59:31.169Z,77.72
2022-09-10T13:00:47.550Z,78.15
2022-09-10T13:02:04.010Z,77.89
2022-09-10T13:03:20.403Z,77.51
2022-09-10T13:04:37.065Z,77.51
2022-09-10T13:05:53.482Z,77.19
2022-09-10T13:07:09.842Z,77.31
2022-09-10T13:08:26.223Z,77.23
2022-09-10T13:09:42.653Z,77.50
2022-09-10T13:10:59.315Z,77.49
2022-09-10T13:12:15.714Z,77.59
2022-09-10T13:13:32.196Z,77.42
2022-09-10T13:14:48.826Z,77.54
2022-09-10T13:16:05.230Z,78.09
2022-09-10T13:17:21.868Z,77.77
2022-09-10T13:18:38.224Z,77.71
2022-09-10T13:19:54.647Z,77.73
2022-09-10T13:21:11.016Z,77.71
2022-09-10T13:22:27.414Z,77.85
2022-09-10T13:23:45.023Z,77.96
2022-09-10T13:25:01.468Z,77.86
2022-09-10T13:26:17.839Z,77.50
2022-09-10T13:27:34.243Z,77.48
2022-09-10T13:28:50.620Z,77.44
2022-09-10T13:30:07.387Z,77.21
2022-09-10T13:31:23.755Z,77.53
2022-09-10T13:32:40.141Z,77.60
2022-09-10T13:33:56.515Z,77.66
2022-09-10T13:35:12.948Z,77.62
2022-09-10T13:36:29.582Z,78.12
2022-09-10T13:37:46.020Z,78.10
2022-09-10T13:39:03.202Z,77.94
2022-09-10T13:40:19.658Z,78.40
2022-09-10T13:41:36.141Z,78.25
2022-09-10T13:42:52.793Z,77.81
2022-09-10T13:44:09.176Z,77.98
2022-09-10T13:45:25.573Z,78.21
2022-09-10T13:46:42.094Z,78.18
2022-09-10T13:47:58.508Z,78.03
2022-09-10T13:49:15.152Z,78.10
2022-09-10T13:50:31.547Z,77.76
2022-09-10T13:51:48.015Z,77.84
2022-09-10T13:53:05.346Z,77.91
2022-09-10T13:54:21.719Z,77.74
2022-09-10T13:55:38.402Z,77.58
2022-09-10T13:56:54.783Z,77.92
2022-09-10T13:58:11.164Z,77.36
2022-09-10T13:59:27.521Z,77.44
2022-09-10T14:00:43.941Z,77.59
2022-09-10T14:02:00.571Z,78.03
2022-09-10T14:03:16.948Z,78.15
2022-09-10T14:04:33.363Z,78.01
2022-09-10T14:05:49.743Z,78.38
2022-09-10T14:07:06.113Z,78.31
2022-09-10T14:08:22.816Z,78.30
2022-09-10T14:09:39.195Z,78.31
2022-09-10T14:10:55.574Z,78.10
2022-09-10T14:12:11.949Z,78.10
2022-09-10T14:13:28.413Z,78.47
2022-09-10T14:14:45.034Z,78.59
2022-09-10T14:16:01.489Z,78.37
2022-09-10T14:17:17.856Z,78.98
2022-09-10T14:18:35.750Z,78.66
2022-09-10T14:19:52.129Z,78.48
2022-09-10T14:21:08.822Z,78.97
2022-09-10T14:22:25.327Z,78.75
2022-09-10T14:23:42.668Z,79.04
2022-09-10T14:24:59.040Z,78.40
2022-09-10T14:26:15.430Z,78.68
2022-09-10T14:27:32.200Z,78.70
2022-09-10T14:28:48.585Z,78.94
2022-09-10T14:30:04.964Z,78.85
2022-09-10T14:31:21.375Z,78.88
2022-09-10T14:32:37.740Z,79.23
2022-09-10T14:33:54.442Z,78.91
2022-09-10T14:35:10.837Z,78.71
2022-09-10T14:36:27.222Z,78.95
2022-09-10T14:37:43.615Z,79.13
2022-09-10T14:38:59.998Z,79.03
2022-09-10T14:40:16.742Z,79.15
2022-09-10T14:41:33.165Z,79.36
2022-09-10T14:42:49.560Z,78.94
2022-09-10T14:44:05.955Z,79.05
2022-09-10T14:45:22.360Z,78.70
2022-09-10T14:46:39.006Z,78.49
2022-09-10T14:47:55.409Z,79.07
2022-09-10T14:49:11.797Z,78.84
2022-09-10T14:50:28.167Z,78.92
2022-09-10T14:51:44.566Z,78.80
2022-09-10T14:53:01.237Z,79.17
2022-09-10T14:54:17.720Z,79.15
2022-09-10T14:55:34.142Z,79.29
2022-09-10T14:56:50.503Z,78.96
2022-09-10T14:58:06.883Z,78.60
2022-09-10T14:59:23.569Z,78.88
2022-09-10T15:00:39.941Z,78.68
2022-09-10T15:01:56.325Z,78.56
2022-09-10T15:03:12.762Z,78.52
2022-09-10T15:04:29.152Z,78.55
2022-09-10T15:05:45.795Z,78.47
2022-09-10T15:07:02.215Z,78.09
2022-09-10T15:08:18.609Z,78.44
2022-09-10T15:09:34.994Z,78.22
2022-09-10T15:10:51.363Z,78.12
2022-09-10T15:12:08.042Z,77.98
2022-09-10T15:13:24.444Z,77.92
2022-09-10T15:14:40.817Z,77.72
2022-09-10T15:15:57.232Z,77.56
2022-09-10T15:17:13.637Z,77.32
2022-09-10T15:18:31.791Z,77.61
2022-09-10T15:19:48.175Z,77.28
2022-09-10T15:21:04.561Z,77.34
2022-09-10T15:22:20.981Z,77.41
2022-09-10T15:23:37.404Z,77.13
2022-09-10T15:25:10.789Z,77.28
2022-09-10T15:26:15.359Z,77.11
2022-09-10T15:27:31.802Z,76.89
2022-09-10T15:28:48.181Z,77.29
2022-09-10T15:30:04.603Z,77.68
2022-09-10T15:31:21.067Z,77.37
2022-09-10T15:32:37.513Z,77.44
2022-09-10T15:33:53.873Z,76.93
2022-09-10T15:35:10.283Z,76.92
2022-09-10T15:36:26.643Z,76.69
2022-09-10T15:37:43.358Z,76.94
2022-09-10T15:39:01.186Z,77.16
2022-09-10T15:40:17.555Z,76.91
2022-09-10T15:41:33.993Z,77.22
2022-09-10T15:42:50.367Z,76.66
2022-09-10T15:44:09.006Z,76.38
2022-09-10T15:45:26.852Z,76.68
2022-09-10T15:46:44.697Z,77.06
2022-09-10T15:48:01.128Z,76.60
2022-09-10T15:49:18.958Z,76.91
2022-09-10T15:50:35.662Z,77.18
2022-09-10T15:51:52.067Z,76.95
2022-09-10T15:53:11.703Z,76.94
2022-09-10T15:54:28.310Z,76.46
2022-09-10T15:55:44.747Z,76.71
2022-09-10T15:57:01.348Z,77.09
2022-09-10T15:58:17.743Z,76.81
2022-09-10T15:59:34.151Z,76.60
2022-09-10T16:00:50.556Z,76.84
2022-09-10T16:02:06.923Z,76.48
2022-09-10T16:03:23.586Z,77.07
2022-09-10T16:04:42.919Z,76.86
2022-09-10T16:05:59.554Z,77.08
2022-09-10T16:07:15.922Z,77.01
2022-09-10T16:08:32.356Z,77.23
2022-09-10T16:09:49.065Z,77.01
2022-09-10T16:11:05.452Z,77.25
2022-09-10T16:12:21.835Z,76.98
2022-09-10T16:13:38.251Z,77.14
2022-09-10T16:14:54.730Z,77.20
2022-09-10T16:16:11.425Z,77.16
2022-09-10T16:17:27.828Z,77.08
2022-09-10T16:18:44.215Z,76.80
2022-09-10T16:20:00.635Z,76.60
2022-09-10T16:21:17.020Z,76.51
2022-09-10T16:22:33.678Z,76.40
2022-09-10T16:23:50.078Z,76.59
2022-09-10T16:25:06.462Z,76.01
2022-09-10T16:26:23.692Z,76.07